sensor_id;sensor_type;location;lat;lon;timestamp;P1;durP1;ratioP1;P2;durP2;ratioP2
43756;SDS011;45574;41.864;12.462;2022-09-09T00:05:42;27.40;;;10.65;;
43756;SDS011;45574;41.864;12.462;2022-09-09T00:08:22;20.67;;;10.27;;
43756;SDS011;45574;41.864;12.462;2022-09-09T00:10:58;31.95;;;11.65;;
43756;SDS011;45574;41.864;12.462;2022-09-09T00:13:37;32.92;;;11.65;;
43756;SDS011;45574;41.864;12.462;2022-09-09T00:23:59;33.25;;;11.40;;
43756;SDS011;45574;41.864;12.462;2022-09-09T00:26:43;40.78;;;13.85;;
43756;SDS011;45574;41.864;12.462;2022-09-09T00:32:16;37.35;;;17.02;;
43756;SDS011;45574;41.864;12.462;2022-09-09T00:35:03;35.38;;;18.17;;
43756;SDS011;45574;41.864;12.462;2022-09-09T00:37:54;35.92;;;16.77;;
43756;SDS011;45574;41.864;12.462;2022-09-09T00:43:10;33.65;;;17.50;;
43756;SDS011;45574;41.864;12.462;2022-09-09T00:51:49;34.63;;;15.95;;
43756;SDS011;45574;41.864;12.462;2022-09-09T01:09:04;32.13;;;13.85;;
43756;SDS011;45574;41.864;12.462;2022-09-09T01:14:43;33.03;;;14.15;;
43756;SDS011;45574;41.864;12.462;2022-09-09T01:17:17;30.48;;;13.68;;
43756;SDS011;45574;41.864;12.462;2022-09-09T01:20:10;30.92;;;13.73;;
43756;SDS011;45574;41.864;12.462;2022-09-09T01:22:50;18.95;;;12.15;;
43756;SDS011;45574;41.864;12.462;2022-09-09T01:25:29;31.13;;;11.90;;
43756;SDS011;45574;41.864;12.462;2022-09-09T01:28:18;33.55;;;12.38;;
43756;SDS011;45574;41.864;12.462;2022-09-09T01:30:50;32.45;;;13.68;;
43756;SDS011;45574;41.864;12.462;2022-09-09T01:33:19;29.35;;;12.02;;
43756;SDS011;45574;41.864;12.462;2022-09-09T01:35:56;31.20;;;12.65;;
43756;SDS011;45574;41.864;12.462;2022-09-09T01:38:35;26.60;;;11.57;;
43756;SDS011;45574;41.864;12.462;2022-09-09T01:41:02;33.78;;;11.80;;
43756;SDS011;45574;41.864;12.462;2022-09-09T01:43:39;25.42;;;11.90;;
43756;SDS011;45574;41.864;12.462;2022-09-09T01:46:06;30.77;;;11.68;;
43756;SDS011;45574;41.864;12.462;2022-09-09T01:48:33;30.08;;;11.25;;
43756;SDS011;45574;41.864;12.462;2022-09-09T01:51:07;22.10;;;9.35;;
43756;SDS011;45574;41.864;12.462;2022-09-09T01:53:34;29.20;;;10.25;;
43756;SDS011;45574;41.864;12.462;2022-09-09T01:56:03;23.25;;;8.60;;
43756;SDS011;45574;41.864;12.462;2022-09-09T02:04:35;16.98;;;4.63;;
43756;SDS011;45574;41.864;12.462;2022-09-09T02:07:08;10.98;;;4.03;;
43756;SDS011;45574;41.864;12.462;2022-09-09T02:09:40;11.80;;;4.10;;
43756;SDS011;45574;41.864;12.462;2022-09-09T02:12:14;13.15;;;3.83;;
43756;SDS011;45574;41.864;12.462;2022-09-09T02:14:59;16.00;;;3.42;;
43756;SDS011;45574;41.864;12.462;2022-09-09T02:17:39;11.77;;;4.15;;
43756;SDS011;45574;41.864;12.462;2022-09-09T02:20:13;10.70;;;3.58;;
43756;SDS011;45574;41.864;12.462;2022-09-09T02:22:47;13.57;;;4.20;;
43756;SDS011;45574;41.864;12.462;2022-09-09T02:25:19;14.07;;;4.20;;
43756;SDS011;45574;41.864;12.462;2022-09-09T02:30:17;15.27;;;4.03;;
43756;SDS011;45574;41.864;12.462;2022-09-09T02:32:51;14.15;;;3.88;;
43756;SDS011;45574;41.864;12.462;2022-09-09T02:35:26;12.07;;;4.20;;
43756;SDS011;45574;41.864;12.462;2022-09-09T02:37:56;13.65;;;4.07;;
43756;SDS011;45574;41.864;12.462;2022-09-09T02:40:27;13.48;;;4.07;;
43756;SDS011;45574;41.864;12.462;2022-09-09T02:45:27;16.00;;;4.18;;
43756;SDS011;45574;41.864;12.462;2022-09-09T02:50:33;17.02;;;4.47;;
43756;SDS011;45574;41.864;12.462;2022-09-09T02:53:09;12.75;;;4.90;;
43756;SDS011;45574;41.864;12.462;2022-09-09T02:58:21;15.23;;;4.47;;
43756;SDS011;45574;41.864;12.462;2022-09-09T03:01:01;18.90;;;4.35;;
43756;SDS011;45574;41.864;12.462;2022-09-09T03:03:30;16.23;;;4.70;;
43756;SDS011;45574;41.864;12.462;2022-09-09T03:05:59;14.95;;;4.78;;
43756;SDS011;45574;41.864;12.462;2022-09-09T03:08:27;15.60;;;4.50;;
43756;SDS011;45574;41.864;12.462;2022-09-09T03:10:54;15.10;;;5.05;;
43756;SDS011;45574;41.864;12.462;2022-09-09T03:13:26;14.07;;;4.55;;
43756;SDS011;45574;41.864;12.462;2022-09-09T03:15:56;13.77;;;4.55;;
43756;SDS011;45574;41.864;12.462;2022-09-09T03:18:31;17.58;;;5.78;;
43756;SDS011;45574;41.864;12.462;2022-09-09T03:20:58;18.45;;;5.78;;
43756;SDS011;45574;41.864;12.462;2022-09-09T03:23:25;14.07;;;4.78;;
43756;SDS011;45574;41.864;12.462;2022-09-09T03:25:51;17.75;;;4.75;;
43756;SDS011;45574;41.864;12.462;2022-09-09T03:28:36;14.68;;;5.43;;
43756;SDS011;45574;41.864;12.462;2022-09-09T03:31:05;14.73;;;5.20;;
43756;SDS011;45574;41.864;12.462;2022-09-09T03:33:37;16.90;;;5.93;;
43756;SDS011;45574;41.864;12.462;2022-09-09T03:36:05;15.68;;;5.85;;
43756;SDS011;45574;41.864;12.462;2022-09-09T03:38:34;15.07;;;5.15;;
43756;SDS011;45574;41.864;12.462;2022-09-09T03:41:00;14.45;;;5.20;;
43756;SDS011;45574;41.864;12.462;2022-09-09T03:43:28;16.10;;;5.43;;
43756;SDS011;45574;41.864;12.462;2022-09-09T03:45:55;18.30;;;5.43;;
43756;SDS011;45574;41.864;12.462;2022-09-09T03:48:24;20.08;;;5.10;;
43756;SDS011;45574;41.864;12.462;2022-09-09T03:50:52;14.43;;;5.22;;
43756;SDS011;45574;41.864;12.462;2022-09-09T03:53:19;13.90;;;4.75;;
43756;SDS011;45574;41.864;12.462;2022-09-09T03:55:48;18.40;;;5.10;;
43756;SDS011;45574;41.864;12.462;2022-09-09T03:58:16;16.35;;;5.20;;
43756;SDS011;45574;41.864;12.462;2022-09-09T04:00:53;15.20;;;5.05;;
43756;SDS011;45574;41.864;12.462;2022-09-09T04:03:25;13.10;;;4.53;;
43756;SDS011;45574;41.864;12.462;2022-09-09T04:05:52;9.68;;;4.15;;
43756;SDS011;45574;41.864;12.462;2022-09-09T04:08:20;13.50;;;4.70;;
43756;SDS011;45574;41.864;12.462;2022-09-09T04:10:48;12.57;;;4.43;;
43756;SDS011;45574;41.864;12.462;2022-09-09T04:13:16;15.35;;;4.75;;
43756;SDS011;45574;41.864;12.462;2022-09-09T04:15:50;19.40;;;5.10;;
43756;SDS011;45574;41.864;12.462;2022-09-09T04:18:24;14.65;;;5.03;;
43756;SDS011;45574;41.864;12.462;2022-09-09T04:20:52;18.58;;;5.65;;
43756;SDS011;45574;41.864;12.462;2022-09-09T04:23:21;20.65;;;5.63;;
43756;SDS011;45574;41.864;12.462;2022-09-09T04:25:49;20.40;;;5.53;;
43756;SDS011;45574;41.864;12.462;2022-09-09T04:28:18;17.50;;;6.13;;
43756;SDS011;45574;41.864;12.462;2022-09-09T04:30:47;19.77;;;7.13;;
43756;SDS011;45574;41.864;12.462;2022-09-09T04:33:13;21.33;;;7.82;;
43756;SDS011;45574;41.864;12.462;2022-09-09T04:35:44;18.00;;;7.57;;
43756;SDS011;45574;41.864;12.462;2022-09-09T04:38:12;21.73;;;8.38;;
43756;SDS011;45574;41.864;12.462;2022-09-09T04:40:41;22.77;;;7.88;;
43756;SDS011;45574;41.864;12.462;2022-09-09T04:43:09;20.88;;;8.13;;
43756;SDS011;45574;41.864;12.462;2022-09-09T04:45:35;24.33;;;7.45;;
43756;SDS011;45574;41.864;12.462;2022-09-09T04:48:02;30.38;;;7.53;;
43756;SDS011;45574;41.864;12.462;2022-09-09T04:50:29;18.88;;;8.18;;
43756;SDS011;45574;41.864;12.462;2022-09-09T04:53:01;24.55;;;7.97;;
43756;SDS011;45574;41.864;12.462;2022-09-09T04:55:28;20.52;;;7.97;;
43756;SDS011;45574;41.864;12.462;2022-09-09T04:57:55;21.58;;;7.95;;
43756;SDS011;45574;41.864;12.462;2022-09-09T05:00:24;25.58;;;8.00;;
43756;SDS011;45574;41.864;12.462;2022-09-09T05:02:51;25.52;;;7.93;;
43756;SDS011;45574;41.864;12.462;2022-09-09T05:05:17;25.05;;;7.93;;
43756;SDS011;45574;41.864;12.462;2022-09-09T05:07:46;28.90;;;9.55;;
43756;SDS011;45574;41.864;12.462;2022-09-09T05:10:14;19.67;;;8.85;;
43756;SDS011;45574;41.864;12.462;2022-09-09T05:12:42;31.88;;;9.10;;
43756;SDS011;45574;41.864;12.462;2022-09-09T05:15:08;29.65;;;9.38;;
43756;SDS011;45574;41.864;12.462;2022-09-09T05:17:37;19.67;;;8.57;;
43756;SDS011;45574;41.864;12.462;2022-09-09T05:20:03;17.27;;;8.32;;
43756;SDS011;45574;41.864;12.462;2022-09-09T05:22:31;21.45;;;8.50;;
43756;SDS011;45574;41.864;12.462;2022-09-09T05:24:57;23.85;;;8.65;;
43756;SDS011;45574;41.864;12.462;2022-09-09T05:27:24;27.65;;;8.55;;
43756;SDS011;45574;41.864;12.462;2022-09-09T05:29:51;32.72;;;9.02;;
43756;SDS011;45574;41.864;12.462;2022-09-09T05:32:17;31.48;;;8.30;;
43756;SDS011;45574;41.864;12.462;2022-09-09T05:34:46;24.23;;;7.93;;
43756;SDS011;45574;41.864;12.462;2022-09-09T05:37:12;22.33;;;7.35;;
43756;SDS011;45574;41.864;12.462;2022-09-09T05:39:39;25.88;;;7.30;;
43756;SDS011;45574;41.864;12.462;2022-09-09T05:42:06;26.20;;;7.07;;
43756;SDS011;45574;41.864;12.462;2022-09-09T05:44:33;18.48;;;6.47;;
43756;SDS011;45574;41.864;12.462;2022-09-09T05:47:00;17.92;;;6.28;;
43756;SDS011;45574;41.864;12.462;2022-09-09T05:49:26;25.70;;;6.18;;
43756;SDS011;45574;41.864;12.462;2022-09-09T05:51:52;23.88;;;6.38;;
43756;SDS011;45574;41.864;12.462;2022-09-09T05:54:20;20.92;;;6.13;;
43756;SDS011;45574;41.864;12.462;2022-09-09T05:56:49;19.05;;;5.60;;
43756;SDS011;45574;41.864;12.462;2022-09-09T05:59:16;15.75;;;5.53;;
43756;SDS011;45574;41.864;12.462;2022-09-09T06:01:43;19.92;;;6.45;;
43756;SDS011;45574;41.864;12.462;2022-09-09T06:04:18;19.55;;;5.95;;
43756;SDS011;45574;41.864;12.462;2022-09-09T06:06:48;18.38;;;5.60;;
43756;SDS011;45574;41.864;12.462;2022-09-09T06:11:46;18.15;;;5.90;;
43756;SDS011;45574;41.864;12.462;2022-09-09T06:14:14;19.55;;;5.32;;
43756;SDS011;45574;41.864;12.462;2022-09-09T06:16:40;17.35;;;5.53;;
43756;SDS011;45574;41.864;12.462;2022-09-09T06:19:17;18.77;;;5.03;;
43756;SDS011;45574;41.864;12.462;2022-09-09T06:21:43;13.63;;;5.47;;
43756;SDS011;45574;41.864;12.462;2022-09-09T06:24:10;23.38;;;5.63;;
43756;SDS011;45574;41.864;12.462;2022-09-09T06:26:39;21.67;;;4.80;;
43756;SDS011;45574;41.864;12.462;2022-09-09T06:29:06;19.52;;;5.43;;
43756;SDS011;45574;41.864;12.462;2022-09-09T06:31:35;21.05;;;5.15;;
43756;SDS011;45574;41.864;12.462;2022-09-09T06:34:21;18.33;;;5.07;;
43756;SDS011;45574;41.864;12.462;2022-09-09T06:36:52;19.60;;;5.00;;
43756;SDS011;45574;41.864;12.462;2022-09-09T06:39:18;21.35;;;4.82;;
43756;SDS011;45574;41.864;12.462;2022-09-09T06:41:45;19.85;;;4.40;;
43756;SDS011;45574;41.864;12.462;2022-09-09T06:44:34;20.45;;;5.28;;
43756;SDS011;45574;41.864;12.462;2022-09-09T06:47:08;17.70;;;4.30;;
43756;SDS011;45574;41.864;12.462;2022-09-09T06:49:34;17.38;;;4.20;;
43756;SDS011;45574;41.864;12.462;2022-09-09T06:52:03;14.88;;;4.38;;
43756;SDS011;45574;41.864;12.462;2022-09-09T06:54:30;18.50;;;4.15;;
43756;SDS011;45574;41.864;12.462;2022-09-09T06:56:57;17.38;;;4.13;;
43756;SDS011;45574;41.864;12.462;2022-09-09T06:59:24;22.25;;;4.70;;
43756;SDS011;45574;41.864;12.462;2022-09-09T07:01:53;21.77;;;4.00;;
43756;SDS011;45574;41.864;12.462;2022-09-09T07:04:21;19.70;;;5.55;;
43756;SDS011;45574;41.864;12.462;2022-09-09T07:06:47;16.73;;;3.90;;
43756;SDS011;45574;41.864;12.462;2022-09-09T07:09:18;19.40;;;4.43;;
43756;SDS011;45574;41.864;12.462;2022-09-09T07:11:48;21.30;;;4.18;;
43756;SDS011;45574;41.864;12.462;2022-09-09T07:14:20;18.63;;;3.80;;
43756;SDS011;45574;41.864;12.462;2022-09-09T07:16:52;12.63;;;3.58;;
43756;SDS011;45574;41.864;12.462;2022-09-09T07:19:18;19.73;;;4.22;;
43756;SDS011;45574;41.864;12.462;2022-09-09T07:21:51;20.17;;;3.83;;
43756;SDS011;45574;41.864;12.462;2022-09-09T07:24:22;15.57;;;3.83;;
43756;SDS011;45574;41.864;12.462;2022-09-09T07:26:57;19.92;;;3.95;;
43756;SDS011;45574;41.864;12.462;2022-09-09T07:29:25;19.60;;;4.03;;
43756;SDS011;45574;41.864;12.462;2022-09-09T07:31:52;16.95;;;3.95;;
43756;SDS011;45574;41.864;12.462;2022-09-09T07:34:24;20.23;;;4.20;;
43756;SDS011;45574;41.864;12.462;2022-09-09T07:36:51;11.82;;;3.17;;
43756;SDS011;45574;41.864;12.462;2022-09-09T07:39:18;23.10;;;3.55;;
43756;SDS011;45574;41.864;12.462;2022-09-09T07:41:51;17.52;;;3.72;;
43756;SDS011;45574;41.864;12.462;2022-09-09T07:44:21;14.27;;;3.17;;
43756;SDS011;45574;41.864;12.462;2022-09-09T07:46:57;12.10;;;3.08;;
43756;SDS011;45574;41.864;12.462;2022-09-09T07:49:29;14.63;;;3.35;;
43756;SDS011;45574;41.864;12.462;2022-09-09T07:51:55;13.73;;;3.35;;
43756;SDS011;45574;41.864;12.462;2022-09-09T07:54:22;12.75;;;3.25;;
43756;SDS011;45574;41.864;12.462;2022-09-09T07:56:51;17.73;;;3.70;;
43756;SDS011;45574;41.864;12.462;2022-09-09T07:59:19;11.95;;;2.83;;
43756;SDS011;45574;41.864;12.462;2022-09-09T08:01:49;17.13;;;3.50;;
43756;SDS011;45574;41.864;12.462;2022-09-09T08:09:18;18.58;;;4.40;;
43756;SDS011;45574;41.864;12.462;2022-09-09T08:11:47;17.90;;;4.03;;
43756;SDS011;45574;41.864;12.462;2022-09-09T08:14:13;13.35;;;3.03;;
43756;SDS011;45574;41.864;12.462;2022-09-09T08:16:42;10.65;;;2.70;;
43756;SDS011;45574;41.864;12.462;2022-09-09T08:21:42;13.02;;;2.90;;
43756;SDS011;45574;41.864;12.462;2022-09-09T08:24:10;15.85;;;3.08;;
43756;SDS011;45574;41.864;12.462;2022-09-09T08:26:38;15.77;;;3.13;;
43756;SDS011;45574;41.864;12.462;2022-09-09T08:29:09;11.13;;;2.40;;
43756;SDS011;45574;41.864;12.462;2022-09-09T08:31:38;12.80;;;2.95;;
43756;SDS011;45574;41.864;12.462;2022-09-09T08:34:10;7.65;;;2.20;;
43756;SDS011;45574;41.864;12.462;2022-09-09T08:36:38;9.70;;;2.72;;
43756;SDS011;45574;41.864;12.462;2022-09-09T08:39:08;9.35;;;2.38;;
43756;SDS011;45574;41.864;12.462;2022-09-09T08:58:48;6.88;;;2.20;;
43756;SDS011;45574;41.864;12.462;2022-09-09T09:11:51;8.52;;;2.17;;
43756;SDS011;45574;41.864;12.462;2022-09-09T09:14:21;13.73;;;2.40;;
43756;SDS011;45574;41.864;12.462;2022-09-09T09:19:19;23.00;;;3.10;;
43756;SDS011;45574;41.864;12.462;2022-09-09T09:21:58;10.18;;;2.60;;
43756;SDS011;45574;41.864;12.462;2022-09-09T09:25:08;12.65;;;3.25;;
43756;SDS011;45574;41.864;12.462;2022-09-09T09:27:52;20.50;;;2.72;;
43756;SDS011;45574;41.864;12.462;2022-09-09T09:36:10;9.43;;;2.50;;
43756;SDS011;45574;41.864;12.462;2022-09-09T09:38:40;10.55;;;2.40;;
43756;SDS011;45574;41.864;12.462;2022-09-09T09:41:30;9.02;;;2.10;;
43756;SDS011;45574;41.864;12.462;2022-09-09T09:44:02;8.95;;;2.53;;
43756;SDS011;45574;41.864;12.462;2022-09-09T09:46:29;8.80;;;2.20;;
43756;SDS011;45574;41.864;12.462;2022-09-09T09:49:09;10.93;;;2.17;;
43756;SDS011;45574;41.864;12.462;2022-09-09T09:51:37;8.85;;;2.05;;
43756;SDS011;45574;41.864;12.462;2022-09-09T09:56:39;11.50;;;2.50;;
43756;SDS011;45574;41.864;12.462;2022-09-09T09:59:32;11.35;;;2.30;;
43756;SDS011;45574;41.864;12.462;2022-09-09T10:02:24;13.77;;;2.38;;
43756;SDS011;45574;41.864;12.462;2022-09-09T10:05:04;8.02;;;2.63;;
43756;SDS011;45574;41.864;12.462;2022-09-09T10:07:46;7.18;;;1.90;;
43756;SDS011;45574;41.864;12.462;2022-09-09T10:10:37;6.70;;;2.13;;
43756;SDS011;45574;41.864;12.462;2022-09-09T10:24:25;8.63;;;2.20;;
43756;SDS011;45574;41.864;12.462;2022-09-09T10:32:41;7.03;;;1.88;;
43756;SDS011;45574;41.864;12.462;2022-09-09T10:35:30;9.90;;;2.50;;
43756;SDS011;45574;41.864;12.462;2022-09-09T10:43:17;9.20;;;2.30;;
43756;SDS011;45574;41.864;12.462;2022-09-09T10:56:34;4.90;;;1.88;;
43756;SDS011;45574;41.864;12.462;2022-09-09T10:59:04;9.35;;;2.03;;
43756;SDS011;45574;41.864;12.462;2022-09-09T11:04:38;7.75;;;2.00;;
43756;SDS011;45574;41.864;12.462;2022-09-09T11:07:08;6.85;;;2.08;;
43756;SDS011;45574;41.864;12.462;2022-09-09T11:09:41;8.63;;;2.03;;
43756;SDS011;45574;41.864;12.462;2022-09-09T11:12:16;10.95;;;2.63;;
43756;SDS011;45574;41.864;12.462;2022-09-09T11:14:48;9.02;;;1.95;;
43756;SDS011;45574;41.864;12.462;2022-09-09T11:17:26;8.48;;;2.22;;
43756;SDS011;45574;41.864;12.462;2022-09-09T11:20:13;6.03;;;2.38;;
43756;SDS011;45574;41.864;12.462;2022-09-09T11:33:37;9.48;;;2.15;;
43756;SDS011;45574;41.864;12.462;2022-09-09T11:39:01;10.32;;;2.30;;
43756;SDS011;45574;41.864;12.462;2022-09-09T11:41:33;7.30;;;2.00;;
43756;SDS011;45574;41.864;12.462;2022-09-09T11:44:12;6.10;;;1.80;;
43756;SDS011;45574;41.864;12.462;2022-09-09T11:46:49;6.95;;;1.92;;
43756;SDS011;45574;41.864;12.462;2022-09-09T11:49:27;8.20;;;2.22;;
43756;SDS011;45574;41.864;12.462;2022-09-09T11:52:12;12.68;;;2.33;;
43756;SDS011;45574;41.864;12.462;2022-09-09T11:54:47;6.43;;;1.98;;
43756;SDS011;45574;41.864;12.462;2022-09-09T12:00:42;10.45;;;2.35;;
43756;SDS011;45574;41.864;12.462;2022-09-09T12:05:58;9.77;;;2.05;;
43756;SDS011;45574;41.864;12.462;2022-09-09T12:08:26;8.00;;;2.00;;
43756;SDS011;45574;41.864;12.462;2022-09-09T12:10:58;9.40;;;2.42;;
43756;SDS011;45574;41.864;12.462;2022-09-09T12:13:29;9.65;;;2.13;;
43756;SDS011;45574;41.864;12.462;2022-09-09T12:15:56;7.82;;;2.20;;
43756;SDS011;45574;41.864;12.462;2022-09-09T12:21:06;6.60;;;2.20;;
43756;SDS011;45574;41.864;12.462;2022-09-09T12:29:05;7.72;;;1.92;;
43756;SDS011;45574;41.864;12.462;2022-09-09T12:37:14;11.00;;;2.30;;
43756;SDS011;45574;41.864;12.462;2022-09-09T12:44:50;9.43;;;2.05;;
43756;SDS011;45574;41.864;12.462;2022-09-09T12:47:17;9.55;;;2.50;;
43756;SDS011;45574;41.864;12.462;2022-09-09T12:49:47;8.02;;;1.95;;
43756;SDS011;45574;41.864;12.462;2022-09-09T12:52:31;8.75;;;2.20;;
43756;SDS011;45574;41.864;12.462;2022-09-09T12:55:03;13.80;;;2.90;;
43756;SDS011;45574;41.864;12.462;2022-09-09T12:57:35;11.40;;;2.33;;
43756;SDS011;45574;41.864;12.462;2022-09-09T13:02:56;13.02;;;2.20;;
43756;SDS011;45574;41.864;12.462;2022-09-09T13:05:25;10.10;;;2.15;;
43756;SDS011;45574;41.864;12.462;2022-09-09T13:08:03;11.65;;;2.17;;
43756;SDS011;45574;41.864;12.462;2022-09-09T13:10:38;12.48;;;1.88;;
43756;SDS011;45574;41.864;12.462;2022-09-09T13:13:13;12.93;;;2.30;;
43756;SDS011;45574;41.864;12.462;2022-09-09T13:15:48;13.27;;;2.15;;
43756;SDS011;45574;41.864;12.462;2022-09-09T13:18:24;11.45;;;1.88;;
43756;SDS011;45574;41.864;12.462;2022-09-09T13:21:03;12.40;;;1.92;;
43756;SDS011;45574;41.864;12.462;2022-09-09T13:23:30;14.55;;;2.15;;
43756;SDS011;45574;41.864;12.462;2022-09-09T13:26:01;19.95;;;2.72;;
43756;SDS011;45574;41.864;12.462;2022-09-09T13:28:33;18.05;;;2.45;;
43756;SDS011;45574;41.864;12.462;2022-09-09T13:31:01;7.05;;;1.85;;
43756;SDS011;45574;41.864;12.462;2022-09-09T13:33:34;8.63;;;2.00;;
43756;SDS011;45574;41.864;12.462;2022-09-09T13:36:07;10.10;;;1.83;;
43756;SDS011;45574;41.864;12.462;2022-09-09T13:38:53;12.77;;;2.47;;
43756;SDS011;45574;41.864;12.462;2022-09-09T13:41:22;9.98;;;2.10;;
43756;SDS011;45574;41.864;12.462;2022-09-09T13:43:50;12.63;;;2.50;;
43756;SDS011;45574;41.864;12.462;2022-09-09T13:46:37;6.95;;;1.95;;
43756;SDS011;45574;41.864;12.462;2022-09-09T13:51:40;9.52;;;1.80;;
43756;SDS011;45574;41.864;12.462;2022-09-09T13:54:11;9.18;;;1.83;;
43756;SDS011;45574;41.864;12.462;2022-09-09T13:56:40;11.00;;;2.13;;
43756;SDS011;45574;41.864;12.462;2022-09-09T13:59:13;8.20;;;2.13;;
43756;SDS011;45574;41.864;12.462;2022-09-09T14:01:41;6.75;;;1.85;;
43756;SDS011;45574;41.864;12.462;2022-09-09T14:04:08;8.05;;;1.67;;
43756;SDS011;45574;41.864;12.462;2022-09-09T14:06:35;7.45;;;1.98;;
43756;SDS011;45574;41.864;12.462;2022-09-09T14:09:05;9.80;;;2.00;;
43756;SDS011;45574;41.864;12.462;2022-09-09T14:11:32;9.73;;;1.98;;
43756;SDS011;45574;41.864;12.462;2022-09-09T14:13:58;6.55;;;1.70;;
43756;SDS011;45574;41.864;12.462;2022-09-09T14:16:26;5.38;;;1.60;;
43756;SDS011;45574;41.864;12.462;2022-09-09T14:18:53;7.65;;;1.27;;
43756;SDS011;45574;41.864;12.462;2022-09-09T14:21:22;8.90;;;1.52;;
43756;SDS011;45574;41.864;12.462;2022-09-09T14:23:48;4.30;;;1.23;;
43756;SDS011;45574;41.864;12.462;2022-09-09T14:26:14;6.32;;;1.45;;
43756;SDS011;45574;41.864;12.462;2022-09-09T14:28:40;10.07;;;2.00;;
43756;SDS011;45574;41.864;12.462;2022-09-09T14:31:06;7.63;;;1.60;;
43756;SDS011;45574;41.864;12.462;2022-09-09T14:33:33;10.80;;;1.50;;
43756;SDS011;45574;41.864;12.462;2022-09-09T14:36:00;11.07;;;1.55;;
43756;SDS011;45574;41.864;12.462;2022-09-09T14:38:32;10.68;;;2.80;;
43756;SDS011;45574;41.864;12.462;2022-09-09T14:41:00;5.57;;;1.77;;
43756;SDS011;45574;41.864;12.462;2022-09-09T14:43:29;12.13;;;1.98;;
43756;SDS011;45574;41.864;12.462;2022-09-09T14:46:04;11.95;;;1.95;;
43756;SDS011;45574;41.864;12.462;2022-09-09T14:48:34;7.32;;;1.85;;
43756;SDS011;45574;41.864;12.462;2022-09-09T14:51:05;10.88;;;2.25;;
43756;SDS011;45574;41.864;12.462;2022-09-09T14:53:33;13.23;;;2.60;;
43756;SDS011;45574;41.864;12.462;2022-09-09T14:56:04;10.43;;;2.60;;
43756;SDS011;45574;41.864;12.462;2022-09-09T14:58:50;7.65;;;2.15;;
43756;SDS011;45574;41.864;12.462;2022-09-09T15:01:18;11.30;;;2.25;;
43756;SDS011;45574;41.864;12.462;2022-09-09T15:03:59;8.75;;;2.00;;
43756;SDS011;45574;41.864;12.462;2022-09-09T15:06:27;10.33;;;2.07;;
43756;SDS011;45574;41.864;12.462;2022-09-09T15:08:55;15.52;;;2.03;;
43756;SDS011;45574;41.864;12.462;2022-09-09T15:11:26;13.80;;;2.05;;
43756;SDS011;45574;41.864;12.462;2022-09-09T15:13:56;12.02;;;1.30;;
43756;SDS011;45574;41.864;12.462;2022-09-09T15:16:23;7.82;;;1.40;;
43756;SDS011;45574;41.864;12.462;2022-09-09T15:18:52;4.97;;;1.40;;
43756;SDS011;45574;41.864;12.462;2022-09-09T15:21:20;4.95;;;1.30;;
43756;SDS011;45574;41.864;12.462;2022-09-09T15:23:48;5.55;;;1.48;;
43756;SDS011;45574;41.864;12.462;2022-09-09T15:26:15;5.63;;;1.55;;
43756;SDS011;45574;41.864;12.462;2022-09-09T15:28:42;4.65;;;1.10;;
43756;SDS011;45574;41.864;12.462;2022-09-09T15:36:18;5.05;;;1.60;;
43756;SDS011;45574;41.864;12.462;2022-09-09T15:38:47;11.40;;;1.52;;
43756;SDS011;45574;41.864;12.462;2022-09-09T15:41:14;6.45;;;1.33;;
43756;SDS011;45574;41.864;12.462;2022-09-09T15:43:45;6.28;;;1.60;;
43756;SDS011;45574;41.864;12.462;2022-09-09T15:51:21;5.70;;;1.50;;
43756;SDS011;45574;41.864;12.462;2022-09-09T15:53:53;7.82;;;1.42;;
43756;SDS011;45574;41.864;12.462;2022-09-09T15:56:23;9.25;;;1.60;;
43756;SDS011;45574;41.864;12.462;2022-09-09T15:58:51;6.00;;;1.60;;
43756;SDS011;45574;41.864;12.462;2022-09-09T16:01:18;10.93;;;1.95;;
43756;SDS011;45574;41.864;12.462;2022-09-09T16:03:44;7.50;;;1.73;;
43756;SDS011;45574;41.864;12.462;2022-09-09T16:06:16;10.98;;;1.77;;
43756;SDS011;45574;41.864;12.462;2022-09-09T16:08:45;11.23;;;1.90;;
43756;SDS011;45574;41.864;12.462;2022-09-09T16:11:17;6.95;;;1.77;;
43756;SDS011;45574;41.864;12.462;2022-09-09T16:13:49;11.77;;;1.90;;
43756;SDS011;45574;41.864;12.462;2022-09-09T16:16:18;6.65;;;1.73;;
43756;SDS011;45574;41.864;12.462;2022-09-09T16:18:49;7.35;;;1.85;;
43756;SDS011;45574;41.864;12.462;2022-09-09T16:21:27;8.18;;;1.98;;
43756;SDS011;45574;41.864;12.462;2022-09-09T16:23:56;4.95;;;1.33;;
43756;SDS011;45574;41.864;12.462;2022-09-09T16:26:25;8.45;;;1.88;;
43756;SDS011;45574;41.864;12.462;2022-09-09T16:28:53;7.57;;;1.85;;
43756;SDS011;45574;41.864;12.462;2022-09-09T16:31:21;8.70;;;1.73;;
43756;SDS011;45574;41.864;12.462;2022-09-09T16:33:48;11.68;;;1.55;;
43756;SDS011;45574;41.864;12.462;2022-09-09T16:36:17;5.53;;;1.50;;
43756;SDS011;45574;41.864;12.462;2022-09-09T16:38:54;7.75;;;1.88;;
43756;SDS011;45574;41.864;12.462;2022-09-09T16:41:21;10.80;;;2.00;;
43756;SDS011;45574;41.864;12.462;2022-09-09T16:43:47;8.45;;;1.65;;
43756;SDS011;45574;41.864;12.462;2022-09-09T16:46:19;8.38;;;1.73;;
43756;SDS011;45574;41.864;12.462;2022-09-09T16:48:46;12.05;;;1.92;;
43756;SDS011;45574;41.864;12.462;2022-09-09T16:51:14;7.00;;;1.92;;
43756;SDS011;45574;41.864;12.462;2022-09-09T16:53:43;9.32;;;2.10;;
43756;SDS011;45574;41.864;12.462;2022-09-09T16:56:11;9.15;;;1.75;;
43756;SDS011;45574;41.864;12.462;2022-09-09T16:58:40;12.50;;;1.98;;
43756;SDS011;45574;41.864;12.462;2022-09-09T17:01:08;11.02;;;2.10;;
43756;SDS011;45574;41.864;12.462;2022-09-09T17:03:37;7.57;;;2.10;;
43756;SDS011;45574;41.864;12.462;2022-09-09T17:06:03;5.40;;;1.58;;
43756;SDS011;45574;41.864;12.462;2022-09-09T17:08:35;5.55;;;1.55;;
43756;SDS011;45574;41.864;12.462;2022-09-09T17:11:01;10.32;;;2.08;;
43756;SDS011;45574;41.864;12.462;2022-09-09T17:13:27;8.20;;;2.13;;
43756;SDS011;45574;41.864;12.462;2022-09-09T17:15:53;9.43;;;2.10;;
43756;SDS011;45574;41.864;12.462;2022-09-09T17:18:20;9.02;;;1.83;;
43756;SDS011;45574;41.864;12.462;2022-09-09T17:20:46;8.23;;;1.77;;
43756;SDS011;45574;41.864;12.462;2022-09-09T17:23:12;9.18;;;1.90;;
43756;SDS011;45574;41.864;12.462;2022-09-09T17:25:41;12.68;;;2.22;;
43756;SDS011;45574;41.864;12.462;2022-09-09T17:28:08;11.32;;;2.30;;
43756;SDS011;45574;41.864;12.462;2022-09-09T17:30:35;8.85;;;1.92;;
43756;SDS011;45574;41.864;12.462;2022-09-09T17:33:02;7.75;;;2.00;;
43756;SDS011;45574;41.864;12.462;2022-09-09T17:35:30;13.05;;;2.20;;
43756;SDS011;45574;41.864;12.462;2022-09-09T17:37:59;6.78;;;1.90;;
43756;SDS011;45574;41.864;12.462;2022-09-09T17:40:25;6.82;;;1.90;;
43756;SDS011;45574;41.864;12.462;2022-09-09T17:42:52;10.18;;;2.85;;
43756;SDS011;45574;41.864;12.462;2022-09-09T17:45:18;9.60;;;2.42;;
43756;SDS011;45574;41.864;12.462;2022-09-09T17:47:47;7.80;;;2.10;;
43756;SDS011;45574;41.864;12.462;2022-09-09T17:50:17;10.13;;;2.20;;
43756;SDS011;45574;41.864;12.462;2022-09-09T17:53:03;11.15;;;2.10;;
43756;SDS011;45574;41.864;12.462;2022-09-09T17:55:29;16.17;;;2.47;;
43756;SDS011;45574;41.864;12.462;2022-09-09T17:57:55;9.98;;;2.55;;
43756;SDS011;45574;41.864;12.462;2022-09-09T18:00:21;13.98;;;2.30;;
43756;SDS011;45574;41.864;12.462;2022-09-09T18:02:47;10.50;;;2.50;;